Time;durP1;ratioP1;P1;durP2;ratioP2;P2;SDS_P1;SDS_P2;PMS_P1;PMS_P2;Temp;Humidity;BMP_temperature;BMP_pressure;BME280_temperature;BME280_humidity;BME280_pressure;Samples;Min_cycle;Max_cycle;Signal;HPM_P1;HPM_P2
2023/05/24 00:02:14;;;;;;;22.75;10.90;;;;;;;8.25;89.17;102360.28;5070812;28;20063;-49
2023/05/24 00:04:40;;;;;;;24.17;11.05;;;;;;;8.24;89.29;102359.41;5070731;28;20035;-51
2023/05/24 00:07:06;;;;;;;23.00;11.05;;;;;;;8.19;89.52;102348.31;5070823;28;20025;-51
2023/05/24 00:09:31;;;;;;;22.05;10.75;;;;;;;8.17;89.42;102355.19;5070515;28;20082;-50
2023/05/24 00:11:57;;;;;;;21.98;10.60;;;;;;;8.17;89.84;102355.19;5053314;28;20372;-49
2023/05/24 00:14:22;;;;;;;21.20;11.30;;;;;;;8.14;90.26;102350.16;5071417;28;20024;-52
2023/05/24 00:16:48;;;;;;;21.88;10.93;;;;;;;8.10;90.23;102347.91;5071440;28;20107;-50
2023/05/24 00:19:17;;;;;;;20.50;10.68;;;;;;;8.08;90.92;102338.22;5052896;28;20043;-49
2023/05/24 00:21:46;;;;;;;21.10;10.48;;;;;;;8.02;91.00;102339.25;5070691;28;20078;-50
2023/05/24 00:24:12;;;;;;;21.08;11.18;;;;;;;7.97;91.36;102321.53;5071134;28;20028;-51
2023/05/24 00:26:37;;;;;;;22.90;10.82;;;;;;;7.93;91.83;102334.16;5071008;28;20024;-49
2023/05/24 00:29:02;;;;;;;22.10;11.75;;;;;;;7.91;92.24;102339.09;5073949;28;20442;-48
2023/05/24 00:31:28;;;;;;;23.05;11.02;;;;;;;7.88;93.13;102338.75;5074866;28;20105;-49
2023/05/24 00:33:53;;;;;;;20.27;10.73;;;;;;;7.89;92.73;102332.97;5074405;28;20032;-49
2023/05/24 00:36:18;;;;;;;22.50;10.85;;;;;;;7.87;92.34;102328.81;5074022;28;20021;-50
2023/05/24 00:38:44;;;;;;;21.85;11.15;;;;;;;7.84;92.14;102323.81;5074599;28;20066;-51
2023/05/24 00:41:10;;;;;;;21.27;10.43;;;;;;;7.86;91.95;102335.41;5074614;28;20028;-48
2023/05/24 00:43:36;;;;;;;22.63;10.82;;;;;;;7.80;91.66;102327.06;5074703;28;20031;-49
2023/05/24 00:46:21;;;;;;;22.85;11.32;;;;;;;7.86;91.87;102329.91;5074604;28;20103;-49
2023/05/24 00:48:48;;;;;;;21.35;11.15;;;;;;;7.80;91.93;102337.25;5074413;28;20062;-51
2023/05/24 00:51:14;;;;;;;20.88;11.20;;;;;;;7.76;91.54;102327.81;5074511;28;20028;-51
2023/05/24 00:53:41;;;;;;;20.10;10.75;;;;;;;7.74;92.78;102330.81;5073961;28;20039;-51
2023/05/24 00:56:07;;;;;;;23.10;12.13;;;;;;;7.68;92.05;102326.31;5067457;28;20383;-48
2023/05/24 00:58:33;;;;;;;21.13;11.13;;;;;;;7.66;92.40;102320.22;5074411;28;20025;-48
2023/05/24 01:01:00;;;;;;;24.35;11.15;;;;;;;7.65;92.70;102315.78;5056116;28;20036;-49
2023/05/24 01:03:30;;;;;;;20.65;10.85;;;;;;;7.63;92.71;102315.19;5074602;28;20112;-50
2023/05/24 01:05:57;;;;;;;22.10;10.55;;;;;;;7.58;93.23;102312.38;5073892;28;20032;-52
2023/05/24 01:08:53;;;;;;;20.02;10.77;;;;;;;7.56;93.31;102317.28;5074235;28;20064;-52
2023/05/24 01:11:30;;;;;;;18.70;10.50;;;;;;;7.52;93.07;102313.34;5074288;28;20115;-51
2023/05/24 01:14:07;;;;;;;21.45;11.48;;;;;;;7.50;93.89;102310.84;5074270;28;20033;-49
2023/05/24 01:16:52;;;;;;;22.80;10.77;;;;;;;7.46;93.72;102309.69;5073750;28;20032;-51
2023/05/24 01:19:43;;;;;;;21.27;10.82;;;;;;;7.42;94.01;102306.59;5074185;28;20128;-49
2023/05/24 01:22:30;;;;;;;22.23;10.95;;;;;;;7.39;94.43;102303.50;5073503;28;20537;-52
2023/05/24 01:25:03;;;;;;;23.58;11.05;;;;;;;7.32;95.21;102307.25;5072547;28;20107;-53
2023/05/24 01:27:31;;;;;;;22.20;10.65;;;;;;;7.28;94.74;102306.06;5073272;28;20079;-51
2023/05/24 01:29:57;;;;;;;21.63;10.65;;;;;;;7.29;94.81;102309.69;5073246;28;20016;-50
2023/05/24 01:32:23;;;;;;;21.92;11.68;;;;;;;7.27;95.67;102303.56;5073226;28;20109;-52
2023/05/24 01:34:48;;;;;;;20.23;11.45;;;;;;;7.26;95.15;102304.66;5073487;28;20425;-51
2023/05/24 01:37:14;;;;;;;21.17;11.18;;;;;;;7.25;95.28;102300.22;5073625;28;20029;-50
2023/05/24 01:39:39;;;;;;;21.40;11.10;;;;;;;7.23;95.67;102300.50;5072909;28;20396;-51
2023/05/24 01:42:26;;;;;;;22.58;11.15;;;;;;;7.23;96.26;102305.13;5073590;28;20031;-50
2023/05/24 01:45:25;;;;;;;20.55;11.05;;;;;;;7.23;95.73;102303.25;5073183;28;20029;-52
2023/05/24 01:48:17;;;;;;;23.08;11.18;;;;;;;7.25;96.58;102300.22;5001514;28;20085;-49
2023/05/24 01:50:53;;;;;;;19.75;11.10;;;;;;;7.20;96.64;102302.91;5073399;28;20068;-48
2023/05/24 01:53:25;;;;;;;26.58;11.68;;;;;;;7.16;96.84;102295.13;5073321;28;20423;-48
2023/05/24 01:55:54;;;;;;;21.92;11.07;;;;;;;7.12;96.79;102296.72;5073579;28;20025;-51
2023/05/24 01:58:22;;;;;;;22.88;12.20;;;;;;;7.08;98.00;102294.72;5069183;28;20550;-52
2023/05/24 02:00:47;;;;;;;21.02;10.70;;;;;;;7.05;97.71;102303.44;5069603;28;20039;-51
2023/05/24 02:03:14;;;;;;;25.63;11.43;;;;;;;7.05;98.14;102297.94;5055573;28;20033;-50
2023/05/24 02:05:39;;;;;;;23.27;11.27;;;;;;;7.06;98.37;102305.13;5052725;28;20120;-50
2023/05/24 02:08:04;;;;;;;21.85;10.68;;;;;;;7.01;98.77;102306.69;5053118;28;20067;-50
2023/05/24 02:10:30;;;;;;;21.33;11.35;;;;;;;7.00;99.05;102304.19;5052965;28;20469;-48
2023/05/24 02:12:55;;;;;;;21.90;11.10;;;;;;;7.00;99.19;102313.25;5053223;28;20025;-56
2023/05/24 02:15:20;;;;;;;24.20;11.40;;;;;;;7.01;99.34;102309.44;5052973;28;20196;-47
2023/05/24 02:17:46;;;;;;;22.02;11.02;;;;;;;7.01;99.65;102316.88;5034951;28;20507;-48
2023/05/24 02:20:12;;;;;;;24.33;11.70;;;;;;;7.00;100.00;102313.25;5052547;28;20437;-49
2023/05/24 02:22:37;;;;;;;23.58;12.02;;;;;;;6.96;100.00;102314.84;5051698;28;20104;-48
2023/05/24 02:25:03;;;;;;;25.40;12.13;;;;;;;6.86;100.00;102312.72;5052027;28;20027;-48
2023/05/24 02:27:28;;;;;;;24.75;11.30;;;;;;;6.85;100.00;102310.22;5052179;28;20057;-48
2023/05/24 02:29:54;;;;;;;24.30;11.77;;;;;;;6.80;100.00;102324.72;5052013;28;20017;-51
2023/05/24 02:32:19;;;;;;;22.85;11.48;;;;;;;6.81;100.00;102320.88;5052165;28;20082;-48
2023/05/24 02:34:44;;;;;;;25.50;11.40;;;;;;;6.76;100.00;102326.28;5052010;28;20020;-51
2023/05/24 02:37:13;;;;;;;26.83;11.77;;;;;;;6.70;100.00;102311.59;5052391;28;20427;-50
2023/05/24 02:39:40;;;;;;;23.10;11.93;;;;;;;6.69;100.00;102322.84;5052480;28;20027;-49
2023/05/24 02:42:07;;;;;;;22.48;12.60;;;;;;;6.65;100.00;102322.50;5052958;28;20025;-47
2023/05/24 02:44:32;;;;;;;24.50;11.98;;;;;;;6.65;100.00;102325.25;5052551;28;20025;-53
2023/05/24 02:46:58;;;;;;;24.85;11.70;;;;;;;6.63;100.00;102319.13;5052519;28;20107;-48
2023/05/24 02:49:23;;;;;;;25.55;11.55;;;;;;;6.63;100.00;102327.38;5051806;28;20035;-50
2023/05/24 02:51:48;;;;;;;23.45;11.52;;;;;;;6.64;100.00;102329.06;5051898;28;20388;-50
2023/05/24 02:54:13;;;;;;;22.40;11.05;;;;;;;6.69;100.00;102322.84;5052300;28;20414;-50
2023/05/24 02:56:39;;;;;;;23.83;11.50;;;;;;;6.72;100.00;102314.09;5052426;28;20028;-48
2023/05/24 02:59:04;;;;;;;23.50;11.75;;;;;;;6.72;100.00;102325.09;5052129;28;20400;-47
2023/05/24 03:01:30;;;;;;;24.27;11.45;;;;;;;6.76;100.00;102319.94;5052062;28;20079;-48
2023/05/24 03:03:55;;;;;;;23.45;11.13;;;;;;;6.74;100.00;102322.09;5044147;28;20032;-52
2023/05/24 03:06:20;;;;;;;21.88;11.18;;;;;;;6.67;100.00;102314.84;5051973;28;20381;-49
2023/05/24 03:08:46;;;;;;;26.13;11.60;;;;;;;6.62;100.00;102313.88;5052153;28;20095;-52
2023/05/24 03:11:11;;;;;;;23.10;12.02;;;;;;;6.61;100.00;102314.97;5052189;28;20025;-49
2023/05/24 03:13:37;;;;;;;24.05;11.65;;;;;;;6.58;100.00;102310.78;5051992;28;20132;-49
2023/05/24 03:16:02;;;;;;;21.65;11.40;;;;;;;6.54;100.00;102315.09;5050724;28;20084;-49
2023/05/24 03:18:27;;;;;;;24.17;11.50;;;;;;;6.55;100.00;102301.13;5050383;28;20041;-50
2023/05/24 03:20:53;;;;;;;22.30;11.10;;;;;;;6.63;100.00;102299.88;5050686;28;20033;-47
2023/05/24 03:23:18;;;;;;;22.65;11.02;;;;;;;6.67;100.00;102298.34;5051541;28;20568;-48
2023/05/24 03:25:43;;;;;;;23.85;11.55;;;;;;;6.68;100.00;102307.41;5051449;28;20040;-52
2023/05/24 03:28:09;;;;;;;23.38;11.65;;;;;;;6.61;100.00;102310.31;5051645;28;20057;-50
2023/05/24 03:30:34;;;;;;;23.92;11.70;;;;;;;6.64;100.00;102312.56;5051469;28;20539;-49
2023/05/24 03:33:00;;;;;;;26.73;13.00;;;;;;;6.61;100.00;102307.56;5050935;28;20032;-49
2023/05/24 03:35:25;;;;;;;26.95;12.82;;;;;;;6.55;100.00;102300.28;5050644;28;20369;-47
2023/05/24 03:37:51;;;;;;;26.42;13.40;;;;;;;6.50;100.00;102311.19;5050382;28;20021;-50
2023/05/24 03:40:17;;;;;;;23.88;12.18;;;;;;;6.50;100.00;102302.94;5051343;28;20040;-47
2023/05/24 03:42:42;;;;;;;21.88;11.77;;;;;;;6.56;100.00;102299.19;5051100;28;20033;-48
2023/05/24 03:45:08;;;;;;;23.98;12.38;;;;;;;6.52;100.00;102300.75;5051281;28;20029;-47
2023/05/24 03:47:33;;;;;;;24.80;12.43;;;;;;;6.56;100.00;102301.94;5051094;28;20032;-53
2023/05/24 03:49:59;;;;;;;23.35;12.55;;;;;;;6.55;100.00;102301.13;5051119;28;20025;-52
2023/05/24 03:52:24;;;;;;;24.45;12.60;;;;;;;6.56;100.00;102290.94;5051393;28;20028;-49
2023/05/24 03:54:50;;;;;;;23.42;11.93;;;;;;;6.55;100.00;102297.53;5050840;28;20103;-49
2023/05/24 03:57:16;;;;;;;22.88;11.77;;;;;;;6.59;100.00;102284.97;5050796;28;20159;-51
2023/05/24 03:59:41;;;;;;;25.40;11.93;;;;;;;6.62;100.00;102295.47;5043911;28;20036;-51
2023/05/24 04:02:07;;;;;;;24.33;11.90;;;;;;;6.65;100.00;102294.16;5053660;28;20029;-47
2023/05/24 04:04:32;;;;;;;25.25;11.93;;;;;;;6.65;100.00;102296.91;5036813;28;20052;-47
2023/05/24 04:06:57;;;;;;;22.55;11.90;;;;;;;6.69;100.00;102301.69;5054908;28;20448;-48
2023/05/24 04:09:24;;;;;;;24.77;11.63;;;;;;;6.72;100.00;102292.94;5055215;28;20025;-51
2023/05/24 04:11:49;;;;;;;24.83;12.50;;;;;;;6.74;100.00;102291.84;5054943;28;20017;-49
2023/05/24 04:14:14;;;;;;;25.80;12.00;;;;;;;6.77;100.00;102292.19;5036747;28;20074;-48
2023/05/24 04:16:40;;;;;;;25.17;11.85;;;;;;;6.80;100.00;102297.22;5054662;28;20139;-46
2023/05/24 04:19:06;;;;;;;23.27;11.68;;;;;;;6.92;100.00;102304.59;5054532;28;20025;-50
2023/05/24 04:21:33;;;;;;;23.80;11.68;;;;;;;6.95;100.00;102299.44;5055177;28;20029;-53
2023/05/24 04:24:02;;;;;;;25.08;11.30;;;;;;;6.99;100.00;102297.84;5054693;28;20469;-50
2023/05/24 04:26:28;;;;;;;22.60;11.52;;;;;;;7.03;100.00;102303.72;5054351;28;20460;-48
2023/05/24 04:28:54;;;;;;;25.77;11.98;;;;;;;7.04;100.00;102299.84;5036311;28;20087;-49
2023/05/24 04:31:20;;;;;;;25.60;12.40;;;;;;;6.99;100.00;102306.09;5054656;28;20402;-49
2023/05/24 04:33:46;;;;;;;24.83;12.27;;;;;;;7.07;100.00;102307.63;5054583;28;20021;-49
2023/05/24 04:36:12;;;;;;;24.83;12.70;;;;;;;7.12;100.00;102301.38;5036114;28;20425;-49
2023/05/24 04:38:38;;;;;;;24.63;12.27;;;;;;;7.25;100.00;102303.84;5053964;28;20037;-50
2023/05/24 04:41:07;;;;;;;24.98;12.35;;;;;;;7.30;100.00;102306.66;5054686;28;20047;-48
2023/05/24 04:43:35;;;;;;;29.25;12.43;;;;;;;7.32;100.00;102301.75;5054391;28;20074;-49
2023/05/24 04:46:01;;;;;;;26.65;13.05;;;;;;;7.26;100.00;102305.50;5054417;28;20029;-49
2023/05/24 04:48:26;;;;;;;27.83;12.77;;;;;;;7.25;100.00;102301.09;5054144;28;20132;-48
2023/05/24 04:50:57;;;;;;;29.63;13.52;;;;;;;7.27;100.00;102301.69;5054449;28;20028;-50
2023/05/24 04:53:23;;;;;;;28.60;12.63;;;;;;;7.29;100.00;102306.91;5054477;28;20079;-46
2023/05/24 04:55:49;;;;;;;28.17;12.90;;;;;;;7.35;100.00;102316.94;5048126;28;20219;-51
2023/05/24 04:58:15;;;;;;;25.65;13.02;;;;;;;7.40;100.00;102313.44;5052746;28;20477;-48
2023/05/24 05:00:40;;;;;;;28.80;13.20;;;;;;;7.52;100.00;102316.09;5054057;28;20035;-50
2023/05/24 05:03:07;;;;;;;24.50;12.70;;;;;;;7.58;100.00;102307.69;5069730;28;20436;-47
2023/05/24 05:05:32;;;;;;;29.30;12.82;;;;;;;7.65;100.00;102313.03;5073654;28;20373;-49
2023/05/24 05:07:57;;;;;;;26.30;12.57;;;;;;;7.63;100.00;102307.78;5074239;28;20032;-48
2023/05/24 05:10:23;;;;;;;28.73;13.23;;;;;;;7.69;100.00;102305.09;5074151;28;20032;-47
2023/05/24 05:12:48;;;;;;;27.10;13.40;;;;;;;7.78;100.00;102315.47;5054737;28;20028;-50
2023/05/24 05:15:13;;;;;;;29.40;12.90;;;;;;;7.86;100.00;102305.94;5073668;28;20020;-47
2023/05/24 05:17:39;;;;;;;25.70;12.50;;;;;;;8.02;100.00;102315.25;5073543;28;20097;-47
2023/05/24 05:20:05;;;;;;;26.98;12.77;;;;;;;8.08;100.00;102314.25;5073836;28;20024;-49
2023/05/24 05:22:31;;;;;;;27.08;12.75;;;;;;;8.10;100.00;102314.00;5073641;28;20491;-47
2023/05/24 05:24:56;;;;;;;25.85;12.98;;;;;;;8.19;100.00;102329.03;5061676;28;20203;-47
2023/05/24 05:27:21;;;;;;;26.77;12.90;;;;;;;8.25;100.00;102322.50;5041785;28;20049;-50
2023/05/24 05:29:46;;;;;;;26.40;13.20;;;;;;;8.32;100.00;102322.31;5046485;28;20075;-49
2023/05/24 05:32:12;;;;;;;32.95;14.18;;;;;;;8.36;100.00;102323.44;5053831;28;20029;-51
2023/05/24 05:34:37;;;;;;;29.50;13.48;;;;;;;8.39;100.00;102322.13;5035840;28;20047;-49
2023/05/24 05:37:02;;;;;;;30.15;13.90;;;;;;;8.47;100.00;102318.09;5053738;28;20144;-53
2023/05/24 05:39:30;;;;;;;29.65;13.65;;;;;;;8.54;100.00;102318.78;5053579;28;20071;-51
2023/05/24 05:41:55;;;;;;;31.50;14.80;;;;;;;8.66;100.00;102316.72;5053487;28;20116;-50
2023/05/24 05:44:21;;;;;;;25.95;13.68;;;;;;;8.75;100.00;102319.84;5053347;28;20389;-50
2023/05/24 05:46:46;;;;;;;28.70;13.68;;;;;;;8.81;100.00;102320.75;5052855;28;20218;-47
2023/05/24 05:49:14;;;;;;;31.55;15.07;;;;;;;8.86;100.00;102327.16;5052918;28;20438;-49
2023/05/24 05:51:39;;;;;;;35.35;14.27;;;;;;;8.97;100.00;102327.28;5052858;28;20033;-50
2023/05/24 05:54:04;;;;;;;29.23;14.30;;;;;;;9.08;100.00;102333.75;5048260;28;20029;-50
2023/05/24 05:56:30;;;;;;;29.75;14.00;;;;;;;9.18;100.00;102331.09;5050451;28;20025;-47
2023/05/24 05:58:55;;;;;;;30.83;13.63;;;;;;;9.22;100.00;102321.19;5052930;28;20039;-46
2023/05/24 06:01:20;;;;;;;32.28;14.35;;;;;;;9.24;100.00;102330.03;5052896;28;20045;-51
2023/05/24 06:03:46;;;;;;;29.38;14.27;;;;;;;9.29;100.00;102330.13;5052931;28;20444;-51
2023/05/24 06:06:11;;;;;;;29.00;14.93;;;;;;;9.34;100.00;102330.16;5053054;28;20033;-50
2023/05/24 06:08:36;;;;;;;30.35;15.32;;;;;;;9.35;100.00;102331.81;5045369;28;20536;-51
2023/05/24 06:11:02;;;;;;;35.90;15.52;;;;;;;9.25;100.00;102340.00;5050247;28;20036;-48
2023/05/24 06:13:27;;;;;;;27.17;14.25;;;;;;;9.31;100.00;102333.44;5052792;28;20059;-50
2023/05/24 06:15:53;;;;;;;28.05;14.27;;;;;;;9.36;100.00;102335.41;5052278;28;20067;-49
2023/05/24 06:18:19;;;;;;;27.45;14.18;;;;;;;9.42;100.00;102341.81;5052038;28;20021;-49
2023/05/24 06:20:45;;;;;;;28.00;14.60;;;;;;;9.39;100.00;102345.13;5052679;28;20480;-49
2023/05/24 06:23:11;;;;;;;32.00;14.60;;;;;;;9.43;100.00;102349.84;5052421;28;20036;-51
2023/05/24 06:25:37;;;;;;;31.20;14.80;;;;;;;9.59;100.00;102352.75;5052443;28;20033;-49
2023/05/24 06:28:03;;;;;;;27.23;14.45;;;;;;;9.67;100.00;102347.59;5052347;28;20507;-51
2023/05/24 06:30:28;;;;;;;28.55;14.57;;;;;;;9.82;100.00;102351.56;5052259;28;20021;-50
2023/05/24 06:32:53;;;;;;;29.17;13.90;;;;;;;9.93;99.66;102350.56;5051535;28;20029;-55
2023/05/24 06:35:18;;;;;;;29.35;14.68;;;;;;;9.97;98.28;102354.44;5050626;28;20032;-52
2023/05/24 06:37:44;;;;;;;29.65;14.23;;;;;;;10.07;98.21;102355.63;5050550;28;20100;-53
2023/05/24 06:40:10;;;;;;;28.23;13.63;;;;;;;10.11;97.42;102359.53;5050599;28;20384;-52
2023/05/24 06:42:36;;;;;;;29.38;13.43;;;;;;;10.21;96.44;102351.31;5048886;28;20029;-52
2023/05/24 06:45:01;;;;;;;30.50;14.75;;;;;;;10.28;95.57;102354.66;5041710;28;20021;-54
2023/05/24 06:47:27;;;;;;;27.50;13.18;;;;;;;10.38;94.93;102358.63;5027668;28;20112;-49
2023/05/24 06:49:52;;;;;;;30.33;13.40;;;;;;;10.51;94.98;102352.63;5028142;28;20033;-54
2023/05/24 06:52:17;;;;;;;25.00;13.85;;;;;;;10.69;93.69;102356.03;5028308;28;20025;-53
2023/05/24 06:54:43;;;;;;;26.63;13.88;;;;;;;10.89;92.78;102355.25;5028882;28;20034;-53
2023/05/24 06:57:08;;;;;;;28.77;13.10;;;;;;;11.07;90.67;102357.53;5029848;28;20060;-52
2023/05/24 06:59:33;;;;;;;28.63;14.10;;;;;;;11.12;90.84;102355.91;5030060;28;20025;-53
2023/05/24 07:01:59;;;;;;;25.85;13.50;;;;;;;11.12;90.48;102351.19;5030261;28;20044;-54
2023/05/24 07:04:24;;;;;;;26.73;14.32;;;;;;;11.11;89.49;102357.00;5028481;28;20120;-54
2023/05/24 07:06:50;;;;;;;25.35;13.48;;;;;;;11.08;86.41;102367.50;5030006;28;20381;-53
2023/05/24 07:09:19;;;;;;;26.80;13.45;;;;;;;11.12;86.81;102358.66;5030011;28;20408;-53
2023/05/24 07:11:44;;;;;;;25.48;12.32;;;;;;;11.22;85.61;102358.69;5030016;28;20064;-53
2023/05/24 07:14:09;;;;;;;26.88;13.73;;;;;;;11.32;85.84;102360.63;5031864;28;20064;-55
2023/05/24 07:16:35;;;;;;;26.20;12.68;;;;;;;11.38;85.13;102378.97;5030613;28;20029;-53
2023/05/24 07:19:00;;;;;;;25.85;13.00;;;;;;;11.45;85.25;102370.34;5030090;28;20032;-51
2023/05/24 07:21:26;;;;;;;30.90;14.15;;;;;;;11.41;85.05;102370.06;5012103;28;20083;-54
2023/05/24 07:23:51;;;;;;;28.52;13.05;;;;;;;11.26;85.22;102358.97;5029509;28;20860;-50
2023/05/24 07:26:16;;;;;;;23.55;12.88;;;;;;;11.32;85.61;102372.56;5029515;28;20038;-55
2023/05/24 07:28:42;;;;;;;27.88;13.45;;;;;;;11.22;84.70;102375.31;5044366;28;20057;-52
2023/05/24 07:31:08;;;;;;;26.85;12.73;;;;;;;11.16;86.56;102377.25;5049985;28;20136;-52
2023/05/24 07:33:37;;;;;;;27.00;13.38;;;;;;;11.18;85.99;102379.72;5049810;28;20055;-54
2023/05/24 07:36:04;;;;;;;30.83;13.70;;;;;;;11.23;85.87;102375.03;5049483;28;20068;-52
2023/05/24 07:38:30;;;;;;;25.55;12.68;;;;;;;11.37;84.71;102374.53;5049655;28;20017;-53
2023/05/24 07:40:58;;;;;;;32.22;13.27;;;;;;;11.45;84.47;102375.91;5062396;28;20032;-55
2023/05/24 07:43:24;;;;;;;25.85;12.52;;;;;;;11.49;84.03;102369.53;5069491;28;20040;-51
2023/05/24 07:45:49;;;;;;;26.23;13.70;;;;;;;11.57;84.10;102364.56;5069640;28;20120;-54
2023/05/24 07:48:15;;;;;;;27.05;13.25;;;;;;;11.75;82.78;102361.25;5051341;28;20439;-53
2023/05/24 07:50:40;;;;;;;25.40;12.88;;;;;;;12.01;81.17;102370.41;5069302;28;20043;-53
2023/05/24 07:53:06;;;;;;;24.27;12.77;;;;;;;12.26;79.88;102374.28;5069682;28;20056;-55
2023/05/24 07:55:31;;;;;;;24.58;12.45;;;;;;;12.38;77.36;102362.03;5069436;28;20033;-54
2023/05/24 07:57:56;;;;;;;24.52;11.98;;;;;;;12.48;77.12;102364.78;5069882;28;20502;-54
2023/05/24 08:00:22;;;;;;;29.08;13.68;;;;;;;12.71;77.52;102363.31;5069637;28;20064;-54
2023/05/24 08:02:47;;;;;;;25.67;13.00;;;;;;;13.11;76.13;102360.66;5067828;28;20026;-53
2023/05/24 08:05:13;;;;;;;26.92;12.20;;;;;;;13.45;75.06;102354.34;5069420;28;20035;-55
2023/05/24 08:07:40;;;;;;;26.67;13.13;;;;;;;13.62;72.92;102364.22;5069184;28;20040;-54
2023/05/24 08:10:06;;;;;;;23.90;12.38;;;;;;;13.67;72.27;102362.22;5069117;28;20094;-54
2023/05/24 08:12:32;;;;;;;26.92;11.35;;;;;;;13.60;70.70;102360.91;5069004;28;20373;-54
2023/05/24 08:14:57;;;;;;;24.02;11.13;;;;;;;13.62;70.41;102356.72;5069106;28;20032;-53
2023/05/24 08:17:23;;;;;;;26.15;11.95;;;;;;;13.66;69.41;102356.97;5069000;28;20029;-54
2023/05/24 08:19:49;;;;;;;24.02;11.98;;;;;;;13.66;69.71;102354.19;5051464;28;20025;-52
2023/05/24 08:22:14;;;;;;;21.70;10.77;;;;;;;13.90;69.78;102354.25;5068079;28;20033;-54
2023/05/24 08:24:40;;;;;;;25.17;11.75;;;;;;;14.07;68.07;102353.00;5068845;28;20134;-53
2023/05/24 08:27:06;;;;;;;23.88;11.48;;;;;;;14.25;67.00;102355.03;5068442;28;20028;-54
2023/05/24 08:29:32;;;;;;;25.00;10.52;;;;;;;14.24;64.14;102353.38;5068612;28;20511;-53
2023/05/24 08:31:57;;;;;;;24.60;10.88;;;;;;;14.34;65.62;102350.47;5068972;28;20048;-54
2023/05/24 08:34:22;;;;;;;22.95;10.45;;;;;;;14.40;64.85;102354.03;5068956;28;20545;-54
2023/05/24 08:36:48;;;;;;;23.63;12.10;;;;;;;14.54;65.09;102350.56;5068589;28;20039;-54
2023/05/24 08:39:14;;;;;;;22.27;11.88;;;;;;;14.55;64.88;102344.69;5068620;28;20408;-55
2023/05/24 08:41:40;;;;;;;20.10;10.15;;;;;;;14.54;62.43;102345.81;5068730;28;20431;-54
2023/05/24 08:44:08;;;;;;;21.88;10.40;;;;;;;14.40;63.61;102342.91;5068732;28;20507;-55
2023/05/24 08:46:35;;;;;;;22.90;11.57;;;;;;;14.13;64.53;102344.31;5068360;28;20039;-54
2023/05/24 08:49:06;;;;;;;22.83;10.88;;;;;;;14.31;65.28;102339.91;5070588;28;20033;-54
2023/05/24 08:51:32;;;;;;;24.30;11.10;;;;;;;14.56;63.88;102339.94;5072390;28;20035;-54
2023/05/24 08:53:58;;;;;;;23.65;10.65;;;;;;;14.53;62.89;102340.53;5072262;28;20089;-55
2023/05/24 08:56:25;;;;;;;23.45;10.55;;;;;;;14.48;62.88;102339.47;5054446;28;20476;-54
2023/05/24 08:58:52;;;;;;;24.25;10.82;;;;;;;14.49;61.68;102331.97;5072529;28;20480;-54
2023/05/24 09:01:18;;;;;;;23.27;10.20;;;;;;;14.59;60.56;102345.75;5072486;28;20037;-55
2023/05/24 09:03:45;;;;;;;23.40;9.80;;;;;;;14.66;60.68;102334.22;5070699;28;20036;-55
2023/05/24 09:06:12;;;;;;;23.73;10.38;;;;;;;14.80;61.45;102329.66;5073236;28;20027;-54
2023/05/24 09:08:38;;;;;;;23.85;10.20;;;;;;;14.71;59.69;102330.59;5073342;28;20144;-54
2023/05/24 09:11:06;;;;;;;23.73;9.75;;;;;;;14.46;60.90;102336.13;5073645;28;20120;-54
2023/05/24 09:13:32;;;;;;;23.02;10.43;;;;;;;14.23;62.33;102332.22;5073528;28;20025;-53
2023/05/24 09:15:58;;;;;;;24.83;10.82;;;;;;;14.26;62.90;102330.81;5073492;28;20108;-54
2023/05/24 09:18:24;;;;;;;21.13;10.55;;;;;;;14.28;62.80;102326.63;5073123;28;20029;-53
2023/05/24 09:20:50;;;;;;;24.52;10.88;;;;;;;14.28;63.59;102321.03;5063650;28;20035;-55
2023/05/24 09:23:16;;;;;;;22.48;11.02;;;;;;;14.30;63.54;102323.53;5053082;28;20029;-56
2023/05/24 09:25:46;;;;;;;22.70;10.60;;;;;;;14.55;63.18;102322.41;5052938;28;20033;-54
2023/05/24 09:28:14;;;;;;;22.20;11.25;;;;;;;14.85;62.42;102323.16;5052937;28;20126;-55
2023/05/24 09:30:44;;;;;;;24.08;10.60;;;;;;;15.08;60.83;102328.97;5053093;28;20041;-54
2023/05/24 09:33:10;;;;;;;23.10;10.60;;;;;;;15.00;59.77;102324.91;5052646;28;20029;-56
2023/05/24 09:35:35;;;;;;;21.55;10.40;;;;;;;14.84;58.95;102320.66;5059074;28;20554;-54
2023/05/24 09:38:02;;;;;;;22.70;10.63;;;;;;;14.88;59.28;102332.88;5071551;28;20395;-55
2023/05/24 09:40:28;;;;;;;22.42;10.68;;;;;;;14.92;59.20;102326.41;5072148;28;20087;-55
2023/05/24 09:43:08;;;;;;;24.63;10.50;;;;;;;14.87;60.16;102322.88;5071663;28;20033;-55
2023/05/24 09:45:43;;;;;;;23.15;10.25;;;;;;;14.72;59.77;102321.09;5071603;28;20053;-55
2023/05/24 09:48:10;;;;;;;20.85;10.45;;;;;;;14.61;59.72;102321.19;5071584;28;20035;-56
2023/05/24 09:50:35;;;;;;;24.27;11.10;;;;;;;14.75;59.73;102318.53;5069455;28;20063;-55
2023/05/24 09:53:01;;;;;;;22.63;10.38;;;;;;;14.80;59.78;102318.50;5071383;28;20424;-56
2023/05/24 09:55:26;;;;;;;22.75;10.65;;;;;;;14.84;59.99;102321.50;5071461;28;20039;-55
2023/05/24 09:58:03;;;;;;;24.98;10.38;;;;;;;15.02;60.17;102313.47;5070565;28;20111;-56
2023/05/24 10:00:32;;;;;;;22.13;10.73;;;;;;;15.41;58.96;102309.53;5071860;28;20094;-55
2023/05/24 10:03:01;;;;;;;21.05;10.38;;;;;;;15.68;56.65;102313.56;5069788;28;20044;-54
2023/05/24 10:05:28;;;;;;;18.70;9.43;;;;;;;15.68;53.57;102307.97;5053539;28;20075;-56
2023/05/24 10:07:54;;;;;;;19.98;9.57;;;;;;;15.55;53.80;102310.41;5071156;28;20078;-55
2023/05/24 10:10:19;;;;;;;20.63;10.25;;;;;;;15.60;54.62;102309.47;5071332;28;20033;-55
2023/05/24 10:12:45;;;;;;;21.20;10.38;;;;;;;15.74;53.93;102301.16;5071140;28;20444;-55
2023/05/24 10:15:11;;;;;;;20.90;10.00;;;;;;;15.80;52.29;102304.69;5071195;28;20032;-55
2023/05/24 10:17:36;;;;;;;21.45;10.13;;;;;;;15.70;50.52;102305.72;5070911;28;20482;-54
2023/05/24 10:20:03;;;;;;;20.13;10.52;;;;;;;15.56;51.60;102317.63;5053992;28;20036;-54
2023/05/24 10:22:31;;;;;;;22.52;10.23;;;;;;;15.42;52.85;102305.63;5041714;28;20039;-55
2023/05/24 10:24:58;;;;;;;22.20;9.98;;;;;;;15.38;53.26;102308.19;5040213;28;20041;-56
2023/05/24 10:27:29;;;;;;;21.50;9.98;;;;;;;15.18;55.17;102312.09;5038931;28;20040;-54
2023/05/24 10:30:16;;;;;;;21.98;10.48;;;;;;;15.21;56.12;102310.69;5050276;28;20492;-55
2023/05/24 10:32:43;;;;;;;24.20;10.73;;;;;;;15.15;56.46;102309.94;5050436;28;20515;-54
2023/05/24 10:35:11;;;;;;;22.00;10.13;;;;;;;15.23;55.72;102312.03;5032594;28;20570;-55
2023/05/24 10:37:37;;;;;;;21.67;10.35;;;;;;;15.05;55.73;102310.09;5050283;28;20400;-55
2023/05/24 10:40:05;;;;;;;22.92;10.02;;;;;;;15.08;56.76;102309.47;5050561;28;20029;-56
2023/05/24 10:42:31;;;;;;;21.65;9.77;;;;;;;15.20;56.92;102307.06;5050785;28;20495;-54
2023/05/24 10:44:56;;;;;;;23.02;9.93;;;;;;;15.29;56.32;102302.44;5050695;28;20551;-56
2023/05/24 10:47:27;;;;;;;21.77;10.30;;;;;;;15.52;56.50;102302.66;5050376;28;20443;-54
2023/05/24 10:49:58;;;;;;;21.17;9.57;;;;;;;15.74;56.21;102302.00;5050472;28;20025;-54
2023/05/24 10:52:35;;;;;;;21.45;10.48;;;;;;;15.90;56.43;102298.97;5050315;28;20031;-55
2023/05/24 10:55:07;;;;;;;21.27;9.90;;;;;;;15.63;55.66;102297.72;5050332;28;20040;-55
2023/05/24 10:57:33;;;;;;;23.17;9.85;;;;;;;15.65;56.55;102303.84;5068174;28;20020;-55
2023/05/24 11:00:24;;;;;;;21.30;10.02;;;;;;;15.76;57.04;102298.91;5070461;28;20093;-54
2023/05/24 11:03:07;;;;;;;24.48;10.63;;;;;;;15.66;56.37;102302.69;5067878;28;20036;-55
2023/05/24 11:05:50;;;;;;;21.63;10.63;;;;;;;15.81;57.38;102303.56;5069782;28;20067;-54
2023/05/24 11:08:23;;;;;;;23.50;9.90;;;;;;;15.94;56.32;102301.94;5052000;28;20032;-55
2023/05/24 11:10:49;;;;;;;24.02;10.38;;;;;;;15.84;56.12;102303.78;5069254;28;20035;-55
2023/05/24 11:13:17;;;;;;;21.52;10.90;;;;;;;15.81;56.88;102304.41;5069841;28;20392;-54